sensor_id;sensor_type;location;lat;lon;timestamp;temperature;humidity
20066;DHT22;10193;48.884;9.182;2023-04-25T00:00:34;11.30;62.60
20066;DHT22;10193;48.884;9.182;2023-04-25T00:03:01;11.20;62.70
20066;DHT22;10193;48.884;9.182;2023-04-25T00:05:28;11.20;63.00
20066;DHT22;10193;48.884;9.182;2023-04-25T00:07:57;11.10;63.10
20066;DHT22;10193;48.884;9.182;2023-04-25T00:10:23;11.10;63.40
20066;DHT22;10193;48.884;9.182;2023-04-25T00:12:50;11.10;63.70
20066;DHT22;10193;48.884;9.182;2023-04-25T00:15:17;11.00;63.80
20066;DHT22;10193;48.884;9.182;2023-04-25T00:17:43;11.00;64.00
20066;DHT22;10193;48.884;9.182;2023-04-25T00:20:11;11.00;64.20
20066;DHT22;10193;48.884;9.182;2023-04-25T00:22:38;11.00;64.40
20066;DHT22;10193;48.884;9.182;2023-04-25T00:25:07;11.00;64.60
20066;DHT22;10193;48.884;9.182;2023-04-25T00:27:33;11.00;64.80
20066;DHT22;10193;48.884;9.182;2023-04-25T00:30:00;11.00;64.90
20066;DHT22;10193;48.884;9.182;2023-04-25T00:32:28;11.00;65.00
20066;DHT22;10193;48.884;9.182;2023-04-25T00:34:55;11.00;65.20
20066;DHT22;10193;48.884;9.182;2023-04-25T00:37:23;11.00;65.40
20066;DHT22;10193;48.884;9.182;2023-04-25T00:39:50;11.00;65.50
20066;DHT22;10193;48.884;9.182;2023-04-25T00:42:20;11.00;65.60
20066;DHT22;10193;48.884;9.182;2023-04-25T00:44:48;11.10;65.90
20066;DHT22;10193;48.884;9.182;2023-04-25T00:47:15;11.10;65.90
20066;DHT22;10193;48.884;9.182;2023-04-25T00:49:42;11.10;66.80
20066;DHT22;10193;48.884;9.182;2023-04-25T00:52:08;11.10;66.00
20066;DHT22;10193;48.884;9.182;2023-04-25T00:54:35;11.10;66.10
20066;DHT22;10193;48.884;9.182;2023-04-25T00:57:02;11.10;66.00
20066;DHT22;10193;48.884;9.182;2023-04-25T00:59:30;11.10;66.00
20066;DHT22;10193;48.884;9.182;2023-04-25T01:01:58;11.10;66.00
20066;DHT22;10193;48.884;9.182;2023-04-25T01:04:26;11.10;66.00
20066;DHT22;10193;48.884;9.182;2023-04-25T01:06:53;11.10;66.10
20066;DHT22;10193;48.884;9.182;2023-04-25T01:09:21;11.10;66.00
20066;DHT22;10193;48.884;9.182;2023-04-25T01:11:48;11.10;66.00
20066;DHT22;10193;48.884;9.182;2023-04-25T01:14:15;11.10;66.00
20066;DHT22;10193;48.884;9.182;2023-04-25T01:16:44;11.10;66.10
20066;DHT22;10193;48.884;9.182;2023-04-25T01:19:11;11.10;66.20
20066;DHT22;10193;48.884;9.182;2023-04-25T01:21:39;11.10;66.20
20066;DHT22;10193;48.884;9.182;2023-04-25T01:24:06;11.00;66.20
20066;DHT22;10193;48.884;9.182;2023-04-25T01:26:34;11.10;66.30
20066;DHT22;10193;48.884;9.182;2023-04-25T01:29:01;11.10;66.50
20066;DHT22;10193;48.884;9.182;2023-04-25T01:31:28;11.00;66.20
20066;DHT22;10193;48.884;9.182;2023-04-25T01:33:55;11.00;66.30
20066;DHT22;10193;48.884;9.182;2023-04-25T01:36:21;11.00;66.20
20066;DHT22;10193;48.884;9.182;2023-04-25T01:38:49;11.00;66.20
20066;DHT22;10193;48.884;9.182;2023-04-25T01:41:16;11.00;66.30
20066;DHT22;10193;48.884;9.182;2023-04-25T01:43:43;11.00;66.30
20066;DHT22;10193;48.884;9.182;2023-04-25T01:46:11;11.00;66.30
20066;DHT22;10193;48.884;9.182;2023-04-25T01:48:38;11.00;66.30
20066;DHT22;10193;48.884;9.182;2023-04-25T01:51:05;11.00;66.30
20066;DHT22;10193;48.884;9.182;2023-04-25T01:53:31;10.90;66.20
20066;DHT22;10193;48.884;9.182;2023-04-25T01:55:59;11.00;66.30
20066;DHT22;10193;48.884;9.182;2023-04-25T01:58:26;10.90;66.20
20066;DHT22;10193;48.884;9.182;2023-04-25T02:00:53;10.90;66.20
20066;DHT22;10193;48.884;9.182;2023-04-25T02:03:19;10.90;66.30
20066;DHT22;10193;48.884;9.182;2023-04-25T02:05:46;10.90;66.50
20066;DHT22;10193;48.884;9.182;2023-04-25T02:08:13;10.90;66.60
20066;DHT22;10193;48.884;9.182;2023-04-25T02:10:39;10.90;66.70
20066;DHT22;10193;48.884;9.182;2023-04-25T02:13:07;10.90;66.70
20066;DHT22;10193;48.884;9.182;2023-04-25T02:15:34;10.90;66.70
20066;DHT22;10193;48.884;9.182;2023-04-25T02:18:01;10.90;66.80
20066;DHT22;10193;48.884;9.182;2023-04-25T02:20:28;10.90;66.80
20066;DHT22;10193;48.884;9.182;2023-04-25T02:22:56;10.90;66.80
20066;DHT22;10193;48.884;9.182;2023-04-25T02:25:23;10.90;66.80
20066;DHT22;10193;48.884;9.182;2023-04-25T02:27:49;10.90;66.60
20066;DHT22;10193;48.884;9.182;2023-04-25T02:30:18;10.90;66.60
20066;DHT22;10193;48.884;9.182;2023-04-25T02:32:45;10.90;66.30
20066;DHT22;10193;48.884;9.182;2023-04-25T02:35:12;10.90;66.30
20066;DHT22;10193;48.884;9.182;2023-04-25T02:37:39;10.80;66.20
20066;DHT22;10193;48.884;9.182;2023-04-25T02:40:07;10.80;66.30
20066;DHT22;10193;48.884;9.182;2023-04-25T02:42:34;10.80;66.50
20066;DHT22;10193;48.884;9.182;2023-04-25T02:45:01;10.70;66.60
20066;DHT22;10193;48.884;9.182;2023-04-25T02:47:29;10.70;66.80
20066;DHT22;10193;48.884;9.182;2023-04-25T02:49:56;10.70;67.10
20066;DHT22;10193;48.884;9.182;2023-04-25T02:52:23;10.70;67.20
20066;DHT22;10193;48.884;9.182;2023-04-25T02:54:50;10.70;67.40
20066;DHT22;10193;48.884;9.182;2023-04-25T02:57:16;10.70;67.40
20066;DHT22;10193;48.884;9.182;2023-04-25T02:59:43;10.80;67.50
20066;DHT22;10193;48.884;9.182;2023-04-25T03:02:10;10.80;67.50
20066;DHT22;10193;48.884;9.182;2023-04-25T03:04:38;10.80;67.50
20066;DHT22;10193;48.884;9.182;2023-04-25T03:07:05;10.80;67.70
20066;DHT22;10193;48.884;9.182;2023-04-25T03:09:31;10.80;67.70
20066;DHT22;10193;48.884;9.182;2023-04-25T03:11:58;10.80;68.50
20066;DHT22;10193;48.884;9.182;2023-04-25T03:14:25;10.90;67.80
20066;DHT22;10193;48.884;9.182;2023-04-25T03:16:52;10.90;67.80
20066;DHT22;10193;48.884;9.182;2023-04-25T03:19:19;10.90;67.80
20066;DHT22;10193;48.884;9.182;2023-04-25T03:21:47;10.90;67.80
20066;DHT22;10193;48.884;9.182;2023-04-25T03:24:14;10.90;67.70
20066;DHT22;10193;48.884;9.182;2023-04-25T03:26:41;10.90;67.70
20066;DHT22;10193;48.884;9.182;2023-04-25T03:29:08;10.90;67.70
20066;DHT22;10193;48.884;9.182;2023-04-25T03:31:35;10.90;67.70
20066;DHT22;10193;48.884;9.182;2023-04-25T03:34:01;10.90;67.60
20066;DHT22;10193;48.884;9.182;2023-04-25T03:36:28;10.90;67.70
20066;DHT22;10193;48.884;9.182;2023-04-25T03:38:56;10.90;67.70
20066;DHT22;10193;48.884;9.182;2023-04-25T03:41:22;10.90;67.70
20066;DHT22;10193;48.884;9.182;2023-04-25T03:43:49;10.90;67.70
20066;DHT22;10193;48.884;9.182;2023-04-25T03:46:16;10.90;67.80
20066;DHT22;10193;48.884;9.182;2023-04-25T03:48:43;10.90;67.70
20066;DHT22;10193;48.884;9.182;2023-04-25T03:51:10;10.90;67.70
20066;DHT22;10193;48.884;9.182;2023-04-25T03:53:37;10.90;67.70
20066;DHT22;10193;48.884;9.182;2023-04-25T03:56:06;10.90;67.70
20066;DHT22;10193;48.884;9.182;2023-04-25T03:58:32;10.90;67.70
20066;DHT22;10193;48.884;9.182;2023-04-25T04:00:59;10.90;67.70
20066;DHT22;10193;48.884;9.182;2023-04-25T04:03:28;10.90;67.50
20066;DHT22;10193;48.884;9.182;2023-04-25T04:05:54;10.90;67.50
20066;DHT22;10193;48.884;9.182;2023-04-25T04:08:21;10.90;67.50
20066;DHT22;10193;48.884;9.182;2023-04-25T04:10:48;10.90;67.50
20066;DHT22;10193;48.884;9.182;2023-04-25T04:13:16;10.90;67.40
20066;DHT22;10193;48.884;9.182;2023-04-25T04:15:42;10.80;67.30
20066;DHT22;10193;48.884;9.182;2023-04-25T04:18:09;10.90;67.40
20066;DHT22;10193;48.884;9.182;2023-04-25T04:20:36;10.80;67.30
20066;DHT22;10193;48.884;9.182;2023-04-25T04:23:02;10.80;67.30
20066;DHT22;10193;48.884;9.182;2023-04-25T04:25:29;10.80;67.30
20066;DHT22;10193;48.884;9.182;2023-04-25T04:27:56;10.80;67.40
20066;DHT22;10193;48.884;9.182;2023-04-25T04:30:25;10.80;67.40
20066;DHT22;10193;48.884;9.182;2023-04-25T04:32:55;10.70;67.40
20066;DHT22;10193;48.884;9.182;2023-04-25T04:35:22;10.70;67.40
20066;DHT22;10193;48.884;9.182;2023-04-25T04:37:48;10.70;67.40
20066;DHT22;10193;48.884;9.182;2023-04-25T04:40:16;10.70;67.60
20066;DHT22;10193;48.884;9.182;2023-04-25T04:42:43;10.70;67.80
20066;DHT22;10193;48.884;9.182;2023-04-25T04:45:10;10.70;67.80
20066;DHT22;10193;48.884;9.182;2023-04-25T04:47:39;10.70;67.80
20066;DHT22;10193;48.884;9.182;2023-04-25T04:50:07;10.70;67.80
20066;DHT22;10193;48.884;9.182;2023-04-25T04:52:34;10.70;67.90
20066;DHT22;10193;48.884;9.182;2023-04-25T04:55:02;10.70;67.90
20066;DHT22;10193;48.884;9.182;2023-04-25T04:57:29;10.70;68.00
20066;DHT22;10193;48.884;9.182;2023-04-25T04:59:56;10.70;68.00
20066;DHT22;10193;48.884;9.182;2023-04-25T05:02:23;10.80;68.00
20066;DHT22;10193;48.884;9.182;2023-04-25T05:04:51;10.80;67.90
20066;DHT22;10193;48.884;9.182;2023-04-25T05:07:17;10.80;67.90
20066;DHT22;10193;48.884;9.182;2023-04-25T05:09:44;10.80;67.90
20066;DHT22;10193;48.884;9.182;2023-04-25T05:12:11;10.80;68.00
20066;DHT22;10193;48.884;9.182;2023-04-25T05:14:38;10.80;68.10
20066;DHT22;10193;48.884;9.182;2023-04-25T05:17:04;10.80;68.20
20066;DHT22;10193;48.884;9.182;2023-04-25T05:19:33;10.80;68.40
20066;DHT22;10193;48.884;9.182;2023-04-25T05:22:01;10.80;68.60
20066;DHT22;10193;48.884;9.182;2023-04-25T05:24:28;10.90;69.60
20066;DHT22;10193;48.884;9.182;2023-04-25T05:26:55;10.90;68.80
20066;DHT22;10193;48.884;9.182;2023-04-25T05:29:22;11.00;68.90
20066;DHT22;10193;48.884;9.182;2023-04-25T05:31:49;11.00;68.90
20066;DHT22;10193;48.884;9.182;2023-04-25T05:34:16;11.10;69.00
20066;DHT22;10193;48.884;9.182;2023-04-25T05:36:43;11.10;69.00
20066;DHT22;10193;48.884;9.182;2023-04-25T05:39:10;11.20;69.00
20066;DHT22;10193;48.884;9.182;2023-04-25T05:41:37;11.20;69.00
20066;DHT22;10193;48.884;9.182;2023-04-25T05:44:05;11.30;68.90
20066;DHT22;10193;48.884;9.182;2023-04-25T05:46:31;11.30;68.60
20066;DHT22;10193;48.884;9.182;2023-04-25T05:48:58;11.40;68.50
20066;DHT22;10193;48.884;9.182;2023-04-25T05:51:25;11.40;68.40
20066;DHT22;10193;48.884;9.182;2023-04-25T05:53:53;11.40;68.30
20066;DHT22;10193;48.884;9.182;2023-04-25T05:56:21;11.50;68.20
20066;DHT22;10193;48.884;9.182;2023-04-25T05:58:47;11.40;68.00
20066;DHT22;10193;48.884;9.182;2023-04-25T06:01:14;11.50;68.10
20066;DHT22;10193;48.884;9.182;2023-04-25T06:03:41;11.50;68.30
20066;DHT22;10193;48.884;9.182;2023-04-25T06:06:08;11.50;68.60
20066;DHT22;10193;48.884;9.182;2023-04-25T06:08:35;11.50;68.90
20066;DHT22;10193;48.884;9.182;2023-04-25T06:11:03;11.60;69.30
20066;DHT22;10193;48.884;9.182;2023-04-25T06:13:31;11.70;69.70
20066;DHT22;10193;48.884;9.182;2023-04-25T06:15:57;11.70;69.90
20066;DHT22;10193;48.884;9.182;2023-04-25T06:18:24;11.80;69.80
20066;DHT22;10193;48.884;9.182;2023-04-25T06:20:51;11.90;69.80
20066;DHT22;10193;48.884;9.182;2023-04-25T06:23:17;12.00;69.60
20066;DHT22;10193;48.884;9.182;2023-04-25T06:25:44;12.10;69.50
20066;DHT22;10193;48.884;9.182;2023-04-25T06:28:11;12.20;69.40
20066;DHT22;10193;48.884;9.182;2023-04-25T06:30:39;12.20;69.30
20066;DHT22;10193;48.884;9.182;2023-04-25T06:33:06;12.30;69.80
20066;DHT22;10193;48.884;9.182;2023-04-25T06:35:33;12.40;70.50
20066;DHT22;10193;48.884;9.182;2023-04-25T06:38:00;12.60;70.60
20066;DHT22;10193;48.884;9.182;2023-04-25T06:40:27;12.80;70.70
20066;DHT22;10193;48.884;9.182;2023-04-25T06:42:53;13.00;70.70
20066;DHT22;10193;48.884;9.182;2023-04-25T06:45:20;13.10;70.10
20066;DHT22;10193;48.884;9.182;2023-04-25T06:47:48;13.30;70.20
20066;DHT22;10193;48.884;9.182;2023-04-25T06:50:15;13.40;70.00
20066;DHT22;10193;48.884;9.182;2023-04-25T06:52:41;13.60;69.80
20066;DHT22;10193;48.884;9.182;2023-04-25T06:55:09;13.60;69.10
20066;DHT22;10193;48.884;9.182;2023-04-25T06:57:35;13.70;68.80
20066;DHT22;10193;48.884;9.182;2023-04-25T07:00:03;13.80;68.50
20066;DHT22;10193;48.884;9.182;2023-04-25T07:02:33;13.80;68.00
20066;DHT22;10193;48.884;9.182;2023-04-25T07:05:01;13.80;67.40
20066;DHT22;10193;48.884;9.182;2023-04-25T07:07:29;13.80;66.80
20066;DHT22;10193;48.884;9.182;2023-04-25T07:09:56;13.80;66.50
20066;DHT22;10193;48.884;9.182;2023-04-25T07:12:22;13.70;66.20
20066;DHT22;10193;48.884;9.182;2023-04-25T07:14:49;13.60;65.90
20066;DHT22;10193;48.884;9.182;2023-04-25T07:17:16;13.50;65.60
20066;DHT22;10193;48.884;9.182;2023-04-25T07:19:42;13.40;65.40
20066;DHT22;10193;48.884;9.182;2023-04-25T07:22:10;13.40;65.40
20066;DHT22;10193;48.884;9.182;2023-04-25T07:24:37;13.20;65.40
20066;DHT22;10193;48.884;9.182;2023-04-25T07:27:03;13.20;65.60
20066;DHT22;10193;48.884;9.182;2023-04-25T07:29:30;13.10;65.70
20066;DHT22;10193;48.884;9.182;2023-04-25T07:31:57;13.00;65.70
20066;DHT22;10193;48.884;9.182;2023-04-25T07:34:24;13.00;66.60
20066;DHT22;10193;48.884;9.182;2023-04-25T07:36:50;12.90;65.90
20066;DHT22;10193;48.884;9.182;2023-04-25T07:39:19;12.90;66.00
20066;DHT22;10193;48.884;9.182;2023-04-25T07:41:45;12.80;65.80
20066;DHT22;10193;48.884;9.182;2023-04-25T07:44:12;12.80;65.70
20066;DHT22;10193;48.884;9.182;2023-04-25T07:46:39;12.70;65.60
20066;DHT22;10193;48.884;9.182;2023-04-25T07:49:05;12.60;65.50
20066;DHT22;10193;48.884;9.182;2023-04-25T07:51:32;12.60;65.50
20066;DHT22;10193;48.884;9.182;2023-04-25T07:53:59;12.50;65.40
20066;DHT22;10193;48.884;9.182;2023-04-25T07:56:27;12.40;65.40
20066;DHT22;10193;48.884;9.182;2023-04-25T07:58:54;12.40;65.60
20066;DHT22;10193;48.884;9.182;2023-04-25T08:01:20;12.40;65.50
20066;DHT22;10193;48.884;9.182;2023-04-25T08:03:47;12.20;64.80
20066;DHT22;10193;48.884;9.182;2023-04-25T08:06:14;12.10;64.60
20066;DHT22;10193;48.884;9.182;2023-04-25T08:08:40;12.00;64.60
20066;DHT22;10193;48.884;9.182;2023-04-25T08:11:07;11.90;65.00
20066;DHT22;10193;48.884;9.182;2023-04-25T08:13:35;11.80;65.30
20066;DHT22;10193;48.884;9.182;2023-04-25T08:16:02;11.70;65.50
20066;DHT22;10193;48.884;9.182;2023-04-25T08:18:28;11.60;66.00
20066;DHT22;10193;48.884;9.182;2023-04-25T08:20:56;11.50;66.60
20066;DHT22;10193;48.884;9.182;2023-04-25T08:23:22;11.50;67.10
20066;DHT22;10193;48.884;9.182;2023-04-25T08:25:49;11.50;67.30
20066;DHT22;10193;48.884;9.182;2023-04-25T08:28:16;11.50;67.40
20066;DHT22;10193;48.884;9.182;2023-04-25T08:30:44;11.50;67.50
20066;DHT22;10193;48.884;9.182;2023-04-25T08:33:10;11.40;67.40
20066;DHT22;10193;48.884;9.182;2023-04-25T08:35:37;11.40;67.50
20066;DHT22;10193;48.884;9.182;2023-04-25T08:38:04;11.40;67.50
20066;DHT22;10193;48.884;9.182;2023-04-25T08:40:35;11.40;67.80
20066;DHT22;10193;48.884;9.182;2023-04-25T08:43:04;11.40;68.10
20066;DHT22;10193;48.884;9.182;2023-04-25T08:45:38;11.40;68.10
20066;DHT22;10193;48.884;9.182;2023-04-25T08:48:08;11.40;68.10
20066;DHT22;10193;48.884;9.182;2023-04-25T08:50:37;11.30;67.80
20066;DHT22;10193;48.884;9.182;2023-04-25T08:53:08;11.30;67.70
20066;DHT22;10193;48.884;9.182;2023-04-25T08:55:40;11.20;67.30
20066;DHT22;10193;48.884;9.182;2023-04-25T08:58:09;11.20;67.20
20066;DHT22;10193;48.884;9.182;2023-04-25T09:00:36;11.10;67.30
20066;DHT22;10193;48.884;9.182;2023-04-25T09:03:03;11.00;67.90
20066;DHT22;10193;48.884;9.182;2023-04-25T09:05:32;10.90;68.50
20066;DHT22;10193;48.884;9.182;2023-04-25T09:07:58;10.80;68.90
20066;DHT22;10193;48.884;9.182;2023-04-25T09:10:26;10.80;69.20
20066;DHT22;10193;48.884;9.182;2023-04-25T09:13:02;10.80;69.60
20066;DHT22;10193;48.884;9.182;2023-04-25T09:15:30;10.70;70.10
20066;DHT22;10193;48.884;9.182;2023-04-25T09:17:57;10.70;70.30
20066;DHT22;10193;48.884;9.182;2023-04-25T09:20:24;10.70;70.70
20066;DHT22;10193;48.884;9.182;2023-04-25T09:23:03;10.60;71.10
20066;DHT22;10193;48.884;9.182;2023-04-25T09:25:34;10.70;71.80
20066;DHT22;10193;48.884;9.182;2023-04-25T09:28:05;10.60;72.60
20066;DHT22;10193;48.884;9.182;2023-04-25T09:30:34;10.70;72.10
20066;DHT22;10193;48.884;9.182;2023-04-25T09:33:05;10.70;73.20
20066;DHT22;10193;48.884;9.182;2023-04-25T09:35:35;10.70;72.80
20066;DHT22;10193;48.884;9.182;2023-04-25T09:38:09;10.70;73.40
20066;DHT22;10193;48.884;9.182;2023-04-25T09:40:39;10.80;74.00
20066;DHT22;10193;48.884;9.182;2023-04-25T09:43:09;10.80;74.20
20066;DHT22;10193;48.884;9.182;2023-04-25T09:45:41;10.90;74.30
20066;DHT22;10193;48.884;9.182;2023-04-25T09:48:11;11.00;74.60
20066;DHT22;10193;48.884;9.182;2023-04-25T09:50:38;11.00;74.60
20066;DHT22;10193;48.884;9.182;2023-04-25T09:53:05;11.10;74.60
20066;DHT22;10193;48.884;9.182;2023-04-25T09:55:34;11.10;74.30
20066;DHT22;10193;48.884;9.182;2023-04-25T09:58:05;11.10;74.20
20066;DHT22;10193;48.884;9.182;2023-04-25T10:00:32;11.10;74.30
20066;DHT22;10193;48.884;9.182;2023-04-25T10:03:01;11.20;74.40
20066;DHT22;10193;48.884;9.182;2023-04-25T10:05:30;11.20;74.40
20066;DHT22;10193;48.884;9.182;2023-04-25T10:07:59;11.20;74.30
20066;DHT22;10193;48.884;9.182;2023-04-25T10:10:29;11.20;74.10
20066;DHT22;10193;48.884;9.182;2023-04-25T10:13:03;11.20;73.70
20066;DHT22;10193;48.884;9.182;2023-04-25T10:15:31;11.10;73.10
20066;DHT22;10193;48.884;9.182;2023-04-25T10:17:58;11.00;72.10
20066;DHT22;10193;48.884;9.182;2023-04-25T10:20:25;10.90;71.70
20066;DHT22;10193;48.884;9.182;2023-04-25T10:22:54;10.80;72.10
20066;DHT22;10193;48.884;9.182;2023-04-25T10:25:23;10.70;72.30
20066;DHT22;10193;48.884;9.182;2023-04-25T10:27:50;10.60;72.40
20066;DHT22;10193;48.884;9.182;2023-04-25T10:30:19;10.50;72.50
20066;DHT22;10193;48.884;9.182;2023-04-25T10:32:46;10.40;72.20
20066;DHT22;10193;48.884;9.182;2023-04-25T10:35:16;10.30;72.10
20066;DHT22;10193;48.884;9.182;2023-04-25T10:38:04;10.10;72.10
20066;DHT22;10193;48.884;9.182;2023-04-25T10:40:31;10.00;72.30
20066;DHT22;10193;48.884;9.182;2023-04-25T10:43:34;9.90;73.60
20066;DHT22;10193;48.884;9.182;2023-04-25T10:46:13;9.70;74.50
20066;DHT22;10193;48.884;9.182;2023-04-25T10:48:45;9.70;75.10
20066;DHT22;10193;48.884;9.182;2023-04-25T10:51:17;9.60;75.30
20066;DHT22;10193;48.884;9.182;2023-04-25T10:53:44;9.50;76.10
20066;DHT22;10193;48.884;9.182;2023-04-25T10:56:11;9.50;76.80
20066;DHT22;10193;48.884;9.182;2023-04-25T10:58:42;9.60;77.60
20066;DHT22;10193;48.884;9.182;2023-04-25T11:01:11;9.50;78.30
20066;DHT22;10193;48.884;9.182;2023-04-25T11:03:40;9.60;78.80
20066;DHT22;10193;48.884;9.182;2023-04-25T11:06:16;9.60;79.50
20066;DHT22;10193;48.884;9.182;2023-04-25T11:08:48;9.70;80.00
20066;DHT22;10193;48.884;9.182;2023-04-25T11:11:15;9.80;80.80
20066;DHT22;10193;48.884;9.182;2023-04-25T11:13:42;9.80;80.60
20066;DHT22;10193;48.884;9.182;2023-04-25T11:16:10;9.90;80.90
20066;DHT22;10193;48.884;9.182;2023-04-25T11:18:37;10.00;79.80
20066;DHT22;10193;48.884;9.182;2023-04-25T11:21:04;10.00;80.00
20066;DHT22;10193;48.884;9.182;2023-04-25T11:23:31;10.10;80.00
20066;DHT22;10193;48.884;9.182;2023-04-25T11:25:58;10.20;79.50
20066;DHT22;10193;48.884;9.182;2023-04-25T11:28:26;10.20;79.20
20066;DHT22;10193;48.884;9.182;2023-04-25T11:30:53;10.20;79.00
20066;DHT22;10193;48.884;9.182;2023-04-25T11:33:24;10.20;78.80
20066;DHT22;10193;48.884;9.182;2023-04-25T11:35:53;10.20;79.30
20066;DHT22;10193;48.884;9.182;2023-04-25T11:38:20;10.20;79.20
20066;DHT22;10193;48.884;9.182;2023-04-25T11:40:50;10.20;80.00
20066;DHT22;10193;48.884;9.182;2023-04-25T11:43:18;10.20;79.80
20066;DHT22;10193;48.884;9.182;2023-04-25T11:45:46;10.20;80.30
20066;DHT22;10193;48.884;9.182;2023-04-25T11:48:14;10.20;80.70
20066;DHT22;10193;48.884;9.182;2023-04-25T11:50:43;10.30;80.80
20066;DHT22;10193;48.884;9.182;2023-04-25T11:53:09;10.30;80.70
20066;DHT22;10193;48.884;9.182;2023-04-25T11:55:37;10.30;80.70
20066;DHT22;10193;48.884;9.182;2023-04-25T11:58:04;10.30;80.70
20066;DHT22;10193;48.884;9.182;2023-04-25T12:00:31;10.30;80.80
20066;DHT22;10193;48.884;9.182;2023-04-25T12:02:58;10.30;81.20
20066;DHT22;10193;48.884;9.182;2023-04-25T12:05:27;10.40;81.40
20066;DHT22;10193;48.884;9.182;2023-04-25T12:07:56;10.40;81.70
20066;DHT22;10193;48.884;9.182;2023-04-25T12:10:24;10.50;81.80
20066;DHT22;10193;48.884;9.182;2023-04-25T12:12:51;10.50;81.60
20066;DHT22;10193;48.884;9.182;2023-04-25T12:15:22;10.50;81.40
20066;DHT22;10193;48.884;9.182;2023-04-25T12:17:51;10.50;81.40
20066;DHT22;10193;48.884;9.182;2023-04-25T12:20:20;10.50;81.80
20066;DHT22;10193;48.884;9.182;2023-04-25T12:22:49;10.50;82.10
20066;DHT22;10193;48.884;9.182;2023-04-25T12:25:36;10.60;82.20
20066;DHT22;10193;48.884;9.182;2023-04-25T12:28:14;10.60;82.60
20066;DHT22;10193;48.884;9.182;2023-04-25T12:30:54;10.60;83.20
20066;DHT22;10193;48.884;9.182;2023-04-25T12:33:21;10.70;84.00
20066;DHT22;10193;48.884;9.182;2023-04-25T12:35:48;10.80;85.30
20066;DHT22;10193;48.884;9.182;2023-04-25T12:38:21;10.90;86.00
20066;DHT22;10193;48.884;9.182;2023-04-25T12:40:49;11.00;86.60
20066;DHT22;10193;48.884;9.182;2023-04-25T12:43:16;11.20;87.20
20066;DHT22;10193;48.884;9.182;2023-04-25T12:45:42;11.30;87.30
20066;DHT22;10193;48.884;9.182;2023-04-25T12:48:09;11.50;87.20
20066;DHT22;10193;48.884;9.182;2023-04-25T12:50:36;11.60;86.60
20066;DHT22;10193;48.884;9.182;2023-04-25T12:53:03;11.70;86.30
20066;DHT22;10193;48.884;9.182;2023-04-25T12:55:29;11.70;85.60
20066;DHT22;10193;48.884;9.182;2023-04-25T12:57:57;11.80;85.50
20066;DHT22;10193;48.884;9.182;2023-04-25T13:00:24;11.90;86.00
20066;DHT22;10193;48.884;9.182;2023-04-25T13:02:51;12.00;86.60
20066;DHT22;10193;48.884;9.182;2023-04-25T13:05:18;12.10;86.40
20066;DHT22;10193;48.884;9.182;2023-04-25T13:07:45;12.20;86.40
20066;DHT22;10193;48.884;9.182;2023-04-25T13:10:11;12.30;86.40
20066;DHT22;10193;48.884;9.182;2023-04-25T13:12:38;12.40;86.00
20066;DHT22;10193;48.884;9.182;2023-04-25T13:15:08;12.40;85.60
20066;DHT22;10193;48.884;9.182;2023-04-25T13:17:36;12.50;85.00
20066;DHT22;10193;48.884;9.182;2023-04-25T13:20:04;12.50;84.60
20066;DHT22;10193;48.884;9.182;2023-04-25T13:22:31;12.50;82.90
20066;DHT22;10193;48.884;9.182;2023-04-25T13:24:58;12.50;82.70
20066;DHT22;10193;48.884;9.182;2023-04-25T13:27:24;12.50;82.50
20066;DHT22;10193;48.884;9.182;2023-04-25T13:29:51;12.50;82.00
20066;DHT22;10193;48.884;9.182;2023-04-25T13:32:19;12.40;82.20
20066;DHT22;10193;48.884;9.182;2023-04-25T13:34:46;12.40;82.30
20066;DHT22;10193;48.884;9.182;2023-04-25T13:37:13;12.30;83.10
20066;DHT22;10193;48.884;9.182;2023-04-25T13:39:39;12.30;84.30
20066;DHT22;10193;48.884;9.182;2023-04-25T13:42:06;12.30;84.80
20066;DHT22;10193;48.884;9.182;2023-04-25T13:44:33;12.40;85.10
20066;DHT22;10193;48.884;9.182;2023-04-25T13:46:59;12.40;84.90
20066;DHT22;10193;48.884;9.182;2023-04-25T13:49:27;12.50;84.30
20066;DHT22;10193;48.884;9.182;2023-04-25T13:51:54;12.40;83.90
20066;DHT22;10193;48.884;9.182;2023-04-25T13:54:21;12.50;84.60
20066;DHT22;10193;48.884;9.182;2023-04-25T13:56:49;12.50;85.40
20066;DHT22;10193;48.884;9.182;2023-04-25T13:59:15;12.50;85.80
20066;DHT22;10193;48.884;9.182;2023-04-25T14:01:42;12.60;85.30
20066;DHT22;10193;48.884;9.182;2023-04-25T14:04:09;12.70;85.60
20066;DHT22;10193;48.884;9.182;2023-04-25T14:06:37;12.70;84.90
20066;DHT22;10193;48.884;9.182;2023-04-25T14:09:04;12.80;84.60
20066;DHT22;10193;48.884;9.182;2023-04-25T14:11:32;12.80;84.90
20066;DHT22;10193;48.884;9.182;2023-04-25T14:13:59;12.80;84.80
20066;DHT22;10193;48.884;9.182;2023-04-25T14:16:26;12.90;85.00
20066;DHT22;10193;48.884;9.182;2023-04-25T14:18:52;12.90;84.30
20066;DHT22;10193;48.884;9.182;2023-04-25T14:21:19;13.00;84.50
20066;DHT22;10193;48.884;9.182;2023-04-25T14:23:48;13.00;84.10
20066;DHT22;10193;48.884;9.182;2023-04-25T14:26:14;13.00;84.10
20066;DHT22;10193;48.884;9.182;2023-04-25T14:28:41;13.00;84.80
20066;DHT22;10193;48.884;9.182;2023-04-25T14:31:08;13.10;84.90
20066;DHT22;10193;48.884;9.182;2023-04-25T14:33:35;13.10;84.50
20066;DHT22;10193;48.884;9.182;2023-04-25T14:36:05;13.20;84.80
20066;DHT22;10193;48.884;9.182;2023-04-25T14:38:32;13.20;84.30
20066;DHT22;10193;48.884;9.182;2023-04-25T14:40:59;13.20;83.90
20066;DHT22;10193;48.884;9.182;2023-04-25T14:43:26;13.20;83.00
20066;DHT22;10193;48.884;9.182;2023-04-25T14:45:53;13.20;83.00
20066;DHT22;10193;48.884;9.182;2023-04-25T14:48:20;13.20;82.50
20066;DHT22;10193;48.884;9.182;2023-04-25T14:50:47;13.20;82.40
20066;DHT22;10193;48.884;9.182;2023-04-25T14:53:14;13.20;82.50
20066;DHT22;10193;48.884;9.182;2023-04-25T14:55:40;13.20;82.10
20066;DHT22;10193;48.884;9.182;2023-04-25T14:58:08;13.10;81.70
20066;DHT22;10193;48.884;9.182;2023-04-25T15:00:35;13.10;82.30
20066;DHT22;10193;48.884;9.182;2023-04-25T15:03:02;13.10;83.10
20066;DHT22;10193;48.884;9.182;2023-04-25T15:05:29;13.10;83.60
20066;DHT22;10193;48.884;9.182;2023-04-25T15:07:56;13.20;84.80
20066;DHT22;10193;48.884;9.182;2023-04-25T15:10:22;13.10;84.00
20066;DHT22;10193;48.884;9.182;2023-04-25T15:12:49;13.10;84.10
20066;DHT22;10193;48.884;9.182;2023-04-25T15:15:18;13.20;84.50
20066;DHT22;10193;48.884;9.182;2023-04-25T15:17:45;13.20;84.70
20066;DHT22;10193;48.884;9.182;2023-04-25T15:20:12;13.20;84.80
20066;DHT22;10193;48.884;9.182;2023-04-25T15:22:41;13.30;85.00
20066;DHT22;10193;48.884;9.182;2023-04-25T15:25:08;13.30;85.20
20066;DHT22;10193;48.884;9.182;2023-04-25T15:27:35;13.40;85.20
20066;DHT22;10193;48.884;9.182;2023-04-25T15:30:06;13.40;84.30
20066;DHT22;10193;48.884;9.182;2023-04-25T15:32:34;13.40;84.10
20066;DHT22;10193;48.884;9.182;2023-04-25T15:35:03;13.40;84.30